sensor_id;sensor_type;location;lat;lon;timestamp;temperature;humidity
6879;DHT22;3478;51.462;7.338;2024-01-25T00:02:36;8.50;1.00
6879;DHT22;3478;51.462;7.338;2024-01-25T00:07:45;8.40;1.00
6879;DHT22;3478;51.462;7.338;2024-01-25T00:12:49;8.40;1.00
6879;DHT22;3478;51.462;7.338;2024-01-25T00:17:51;8.40;1.00
6879;DHT22;3478;51.462;7.338;2024-01-25T00:22:52;8.30;1.00
6879;DHT22;3478;51.462;7.338;2024-01-25T00:27:56;8.30;1.00
6879;DHT22;3478;51.462;7.338;2024-01-25T00:32:58;8.30;99.90
6879;DHT22;3478;51.462;7.338;2024-01-25T00:38:00;8.30;99.90
6879;DHT22;3478;51.462;7.338;2024-01-25T00:43:04;8.30;99.90
6879;DHT22;3478;51.462;7.338;2024-01-25T00:48:08;8.30;99.90
6879;DHT22;3478;51.462;7.338;2024-01-25T00:53:10;8.30;99.90
6879;DHT22;3478;51.462;7.338;2024-01-25T00:58:14;8.30;99.90
6879;DHT22;3478;51.462;7.338;2024-01-25T01:03:18;8.30;99.90
6879;DHT22;3478;51.462;7.338;2024-01-25T01:08:21;8.30;99.90
6879;DHT22;3478;51.462;7.338;2024-01-25T01:13:25;8.20;99.90
6879;DHT22;3478;51.462;7.338;2024-01-25T01:18:27;8.10;99.90
6879;DHT22;3478;51.462;7.338;2024-01-25T01:23:29;8.10;99.90
6879;DHT22;3478;51.462;7.338;2024-01-25T01:28:32;8.10;99.90
6879;DHT22;3478;51.462;7.338;2024-01-25T01:33:34;8.10;1.00
6879;DHT22;3478;51.462;7.338;2024-01-25T01:38:36;8.10;1.00
6879;DHT22;3478;51.462;7.338;2024-01-25T01:43:40;8.10;1.00
6879;DHT22;3478;51.462;7.338;2024-01-25T01:48:42;8.10;1.00
6879;DHT22;3478;51.462;7.338;2024-01-25T01:53:44;8.00;1.00
6879;DHT22;3478;51.462;7.338;2024-01-25T01:58:49;8.00;1.00
6879;DHT22;3478;51.462;7.338;2024-01-25T02:03:51;8.10;1.00
6879;DHT22;3478;51.462;7.338;2024-01-25T02:08:53;8.10;1.00
6879;DHT22;3478;51.462;7.338;2024-01-25T02:13:58;8.00;1.00
6879;DHT22;3478;51.462;7.338;2024-01-25T02:19:00;8.00;99.90
6879;DHT22;3478;51.462;7.338;2024-01-25T02:24:03;7.90;99.90
6879;DHT22;3478;51.462;7.338;2024-01-25T02:29:06;7.90;99.90
6879;DHT22;3478;51.462;7.338;2024-01-25T02:34:09;7.90;99.90
6879;DHT22;3478;51.462;7.338;2024-01-25T02:39:12;7.90;99.90
6879;DHT22;3478;51.462;7.338;2024-01-25T02:44:15;7.90;99.90
6879;DHT22;3478;51.462;7.338;2024-01-25T02:49:17;7.80;99.90
6879;DHT22;3478;51.462;7.338;2024-01-25T02:54:21;7.70;99.90
6879;DHT22;3478;51.462;7.338;2024-01-25T02:59:23;7.70;99.90
6879;DHT22;3478;51.462;7.338;2024-01-25T03:04:25;7.60;99.90
6879;DHT22;3478;51.462;7.338;2024-01-25T03:09:28;7.60;1.00
6879;DHT22;3478;51.462;7.338;2024-01-25T03:14:30;7.70;99.90
6879;DHT22;3478;51.462;7.338;2024-01-25T03:19:33;7.60;1.00
6879;DHT22;3478;51.462;7.338;2024-01-25T03:24:38;7.50;1.00
6879;DHT22;3478;51.462;7.338;2024-01-25T03:29:41;7.60;1.00
6879;DHT22;3478;51.462;7.338;2024-01-25T03:34:43;7.50;1.00
6879;DHT22;3478;51.462;7.338;2024-01-25T03:39:47;7.50;1.00
6879;DHT22;3478;51.462;7.338;2024-01-25T03:44:49;7.50;1.00
6879;DHT22;3478;51.462;7.338;2024-01-25T03:49:51;7.50;99.90
6879;DHT22;3478;51.462;7.338;2024-01-25T03:54:55;7.40;99.90
6879;DHT22;3478;51.462;7.338;2024-01-25T03:59:57;7.20;1.00
6879;DHT22;3478;51.462;7.338;2024-01-25T04:04:59;7.10;1.00
6879;DHT22;3478;51.462;7.338;2024-01-25T04:10:02;7.00;1.00
6879;DHT22;3478;51.462;7.338;2024-01-25T04:15:06;6.90;15.20
6879;DHT22;3478;51.462;7.338;2024-01-25T04:20:08;6.80;99.90
6879;DHT22;3478;51.462;7.338;2024-01-25T04:25:12;6.80;1.00
6879;DHT22;3478;51.462;7.338;2024-01-25T04:30:15;6.70;1.00
6879;DHT22;3478;51.462;7.338;2024-01-25T04:35:17;6.60;42.40
6879;DHT22;3478;51.462;7.338;2024-01-25T04:40:21;6.60;99.90
6879;DHT22;3478;51.462;7.338;2024-01-25T04:45:23;6.50;1.00
6879;DHT22;3478;51.462;7.338;2024-01-25T04:50:25;6.50;1.00
6879;DHT22;3478;51.462;7.338;2024-01-25T04:55:28;6.40;99.90
6879;DHT22;3478;51.462;7.338;2024-01-25T05:00:30;6.30;1.00
6879;DHT22;3478;51.462;7.338;2024-01-25T05:05:33;6.20;99.90
6879;DHT22;3478;51.462;7.338;2024-01-25T05:10:36;6.10;99.90
6879;DHT22;3478;51.462;7.338;2024-01-25T05:15:38;6.10;99.90
6879;DHT22;3478;51.462;7.338;2024-01-25T05:20:40;6.00;1.00
6879;DHT22;3478;51.462;7.338;2024-01-25T05:25:44;5.90;1.00
6879;DHT22;3478;51.462;7.338;2024-01-25T05:30:46;5.90;1.00
6879;DHT22;3478;51.462;7.338;2024-01-25T05:35:48;5.80;99.90
6879;DHT22;3478;51.462;7.338;2024-01-25T05:40:51;5.80;99.90
6879;DHT22;3478;51.462;7.338;2024-01-25T05:45:53;5.80;1.00
6879;DHT22;3478;51.462;7.338;2024-01-25T05:50:55;5.80;1.00
6879;DHT22;3478;51.462;7.338;2024-01-25T05:55:59;5.70;99.90
6879;DHT22;3478;51.462;7.338;2024-01-25T06:01:01;5.70;1.00
6879;DHT22;3478;51.462;7.338;2024-01-25T06:06:03;5.70;1.00
6879;DHT22;3478;51.462;7.338;2024-01-25T06:11:06;5.70;1.00
6879;DHT22;3478;51.462;7.338;2024-01-25T06:16:10;5.70;1.00
6879;DHT22;3478;51.462;7.338;2024-01-25T06:21:12;5.70;1.00
6879;DHT22;3478;51.462;7.338;2024-01-25T06:26:15;5.60;99.90
6879;DHT22;3478;51.462;7.338;2024-01-25T06:31:17;5.60;99.90
6879;DHT22;3478;51.462;7.338;2024-01-25T06:36:19;5.60;1.00
6879;DHT22;3478;51.462;7.338;2024-01-25T06:41:22;5.60;1.00
6879;DHT22;3478;51.462;7.338;2024-01-25T06:46:25;5.60;1.00
6879;DHT22;3478;51.462;7.338;2024-01-25T06:51:27;5.50;1.00
6879;DHT22;3478;51.462;7.338;2024-01-25T06:56:30;5.50;1.00
6879;DHT22;3478;51.462;7.338;2024-01-25T07:01:32;5.40;1.00
6879;DHT22;3478;51.462;7.338;2024-01-25T07:06:34;5.40;1.00
6879;DHT22;3478;51.462;7.338;2024-01-25T07:11:38;5.40;1.00
6879;DHT22;3478;51.462;7.338;2024-01-25T07:16:40;5.40;1.00
6879;DHT22;3478;51.462;7.338;2024-01-25T07:21:42;5.40;1.00
6879;DHT22;3478;51.462;7.338;2024-01-25T07:26:47;5.40;1.00
6879;DHT22;3478;51.462;7.338;2024-01-25T07:31:50;5.40;99.90
6879;DHT22;3478;51.462;7.338;2024-01-25T07:36:52;5.50;99.90
6879;DHT22;3478;51.462;7.338;2024-01-25T07:41:55;5.50;31.80
6879;DHT22;3478;51.462;7.338;2024-01-25T07:46:57;5.50;99.90
6879;DHT22;3478;51.462;7.338;2024-01-25T07:51:59;5.50;99.90
6879;DHT22;3478;51.462;7.338;2024-01-25T07:57:03;5.50;99.90
6879;DHT22;3478;51.462;7.338;2024-01-25T08:02:05;5.60;64.80
6879;DHT22;3478;51.462;7.338;2024-01-25T08:07:07;5.50;1.00
6879;DHT22;3478;51.462;7.338;2024-01-25T08:12:11;5.60;1.00
6879;DHT22;3478;51.462;7.338;2024-01-25T08:17:12;5.70;1.00
6879;DHT22;3478;51.462;7.338;2024-01-25T08:22:15;5.70;1.00
6879;DHT22;3478;51.462;7.338;2024-01-25T08:27:18;5.70;1.00
6879;DHT22;3478;51.462;7.338;2024-01-25T08:32:20;5.80;1.00
6879;DHT22;3478;51.462;7.338;2024-01-25T08:37:22;5.90;1.00
6879;DHT22;3478;51.462;7.338;2024-01-25T08:42:25;5.90;1.00
6879;DHT22;3478;51.462;7.338;2024-01-25T08:47:27;5.90;1.00
6879;DHT22;3478;51.462;7.338;2024-01-25T08:52:29;6.00;1.00
6879;DHT22;3478;51.462;7.338;2024-01-25T08:57:32;6.00;99.90
6879;DHT22;3478;51.462;7.338;2024-01-25T09:02:34;6.10;99.90
6879;DHT22;3478;51.462;7.338;2024-01-25T09:07:36;6.20;1.00
6879;DHT22;3478;51.462;7.338;2024-01-25T09:12:40;6.30;99.90
6879;DHT22;3478;51.462;7.338;2024-01-25T09:17:42;6.40;1.00
6879;DHT22;3478;51.462;7.338;2024-01-25T09:22:44;6.50;99.90
6879;DHT22;3478;51.462;7.338;2024-01-25T09:27:47;6.70;1.00
6879;DHT22;3478;51.462;7.338;2024-01-25T09:32:49;6.80;1.00
6879;DHT22;3478;51.462;7.338;2024-01-25T09:37:51;7.00;99.90
6879;DHT22;3478;51.462;7.338;2024-01-25T09:42:54;7.00;1.00
6879;DHT22;3478;51.462;7.338;2024-01-25T09:47:56;7.20;1.00
6879;DHT22;3478;51.462;7.338;2024-01-25T09:52:59;7.10;1.00
6879;DHT22;3478;51.462;7.338;2024-01-25T09:58:03;7.10;1.00
6879;DHT22;3478;51.462;7.338;2024-01-25T10:03:09;7.10;1.00
6879;DHT22;3478;51.462;7.338;2024-01-25T10:08:12;7.20;99.90
6879;DHT22;3478;51.462;7.338;2024-01-25T10:13:16;7.40;1.00
6879;DHT22;3478;51.462;7.338;2024-01-25T10:18:21;7.40;99.90
6879;DHT22;3478;51.462;7.338;2024-01-25T10:23:23;7.60;99.90
6879;DHT22;3478;51.462;7.338;2024-01-25T10:28:27;7.60;76.90
6879;DHT22;3478;51.462;7.338;2024-01-25T10:33:31;7.70;91.20
6879;DHT22;3478;51.462;7.338;2024-01-25T10:38:34;7.80;9.80
6879;DHT22;3478;51.462;7.338;2024-01-25T10:43:39;8.00;1.00
6879;DHT22;3478;51.462;7.338;2024-01-25T10:48:41;7.90;1.00
6879;DHT22;3478;51.462;7.338;2024-01-25T10:53:44;7.70;1.00
6879;DHT22;3478;51.462;7.338;2024-01-25T10:58:49;7.80;5.20
6879;DHT22;3478;51.462;7.338;2024-01-25T11:03:51;7.90;1.00
6879;DHT22;3478;51.462;7.338;2024-01-25T11:09:03;7.90;1.00
6879;DHT22;3478;51.462;7.338;2024-01-25T11:14:11;8.00;1.00
6879;DHT22;3478;51.462;7.338;2024-01-25T11:19:18;8.20;1.00
6879;DHT22;3478;51.462;7.338;2024-01-25T11:24:21;8.40;1.00
6879;DHT22;3478;51.462;7.338;2024-01-25T11:29:25;8.60;1.00
6879;DHT22;3478;51.462;7.338;2024-01-25T11:34:27;8.60;1.00
6879;DHT22;3478;51.462;7.338;2024-01-25T11:39:32;8.50;1.00
6879;DHT22;3478;51.462;7.338;2024-01-25T11:44:35;8.50;1.00
6879;DHT22;3478;51.462;7.338;2024-01-25T11:49:37;8.60;1.00
6879;DHT22;3478;51.462;7.338;2024-01-25T11:54:41;8.50;1.00
6879;DHT22;3478;51.462;7.338;2024-01-25T11:59:44;8.70;99.90
6879;DHT22;3478;51.462;7.338;2024-01-25T12:04:47;8.80;99.90
6879;DHT22;3478;51.462;7.338;2024-01-25T12:09:58;8.90;99.90
6879;DHT22;3478;51.462;7.338;2024-01-25T12:15:03;8.80;99.90
6879;DHT22;3478;51.462;7.338;2024-01-25T12:20:06;8.80;99.90
6879;DHT22;3478;51.462;7.338;2024-01-25T12:25:11;9.00;99.90
6879;DHT22;3478;51.462;7.338;2024-01-25T12:30:16;9.00;99.90
6879;DHT22;3478;51.462;7.338;2024-01-25T12:35:18;9.10;99.90
6879;DHT22;3478;51.462;7.338;2024-01-25T12:40:20;9.00;99.90
6879;DHT22;3478;51.462;7.338;2024-01-25T12:45:23;8.90;99.90
6879;DHT22;3478;51.462;7.338;2024-01-25T12:50:25;8.90;99.90
6879;DHT22;3478;51.462;7.338;2024-01-25T12:55:27;9.00;99.90
6879;DHT22;3478;51.462;7.338;2024-01-25T13:00:31;9.00;99.90
6879;DHT22;3478;51.462;7.338;2024-01-25T13:05:33;9.00;99.90
6879;DHT22;3478;51.462;7.338;2024-01-25T13:10:35;9.00;99.90
6879;DHT22;3478;51.462;7.338;2024-01-25T13:15:38;9.20;99.90
6879;DHT22;3478;51.462;7.338;2024-01-25T13:20:41;9.00;99.90
6879;DHT22;3478;51.462;7.338;2024-01-25T13:25:43;8.80;99.90
6879;DHT22;3478;51.462;7.338;2024-01-25T13:30:46;8.90;99.90
6879;DHT22;3478;51.462;7.338;2024-01-25T13:35:49;9.20;99.90
6879;DHT22;3478;51.462;7.338;2024-01-25T13:40:51;9.60;99.90
6879;DHT22;3478;51.462;7.338;2024-01-25T13:45:54;9.40;99.90
6879;DHT22;3478;51.462;7.338;2024-01-25T13:50:56;9.10;99.90
6879;DHT22;3478;51.462;7.338;2024-01-25T13:55:59;8.90;99.90
6879;DHT22;3478;51.462;7.338;2024-01-25T14:01:02;9.00;99.90
6879;DHT22;3478;51.462;7.338;2024-01-25T14:06:05;9.00;99.90
6879;DHT22;3478;51.462;7.338;2024-01-25T14:11:10;9.10;99.90
6879;DHT22;3478;51.462;7.338;2024-01-25T14:16:13;9.20;99.90
6879;DHT22;3478;51.462;7.338;2024-01-25T14:21:17;9.10;99.90
6879;DHT22;3478;51.462;7.338;2024-01-25T14:26:21;9.10;99.90
6879;DHT22;3478;51.462;7.338;2024-01-25T14:31:24;9.20;99.90
6879;DHT22;3478;51.462;7.338;2024-01-25T14:36:26;9.20;99.90
6879;DHT22;3478;51.462;7.338;2024-01-25T14:41:28;9.40;99.90
6879;DHT22;3478;51.462;7.338;2024-01-25T14:46:32;9.30;99.90
6879;DHT22;3478;51.462;7.338;2024-01-25T14:51:33;9.20;99.90
6879;DHT22;3478;51.462;7.338;2024-01-25T14:56:37;9.00;99.90
6879;DHT22;3478;51.462;7.338;2024-01-25T15:01:41;8.90;99.90
6879;DHT22;3478;51.462;7.338;2024-01-25T15:06:43;8.80;99.90
6879;DHT22;3478;51.462;7.338;2024-01-25T15:11:45;8.90;99.90
6879;DHT22;3478;51.462;7.338;2024-01-25T15:16:49;8.90;99.90
6879;DHT22;3478;51.462;7.338;2024-01-25T15:21:51;8.90;99.90
6879;DHT22;3478;51.462;7.338;2024-01-25T15:26:53;8.90;99.90
6879;DHT22;3478;51.462;7.338;2024-01-25T15:31:57;8.90;99.90
6879;DHT22;3478;51.462;7.338;2024-01-25T15:37:02;8.80;99.90
6879;DHT22;3478;51.462;7.338;2024-01-25T15:42:04;8.80;99.90
6879;DHT22;3478;51.462;7.338;2024-01-25T15:47:07;8.80;99.90
6879;DHT22;3478;51.462;7.338;2024-01-25T15:52:09;8.80;99.90
6879;DHT22;3478;51.462;7.338;2024-01-25T15:57:11;8.70;99.90
6879;DHT22;3478;51.462;7.338;2024-01-25T16:02:15;8.70;99.90
6879;DHT22;3478;51.462;7.338;2024-01-25T16:07:18;8.70;99.90
6879;DHT22;3478;51.462;7.338;2024-01-25T16:12:29;8.70;99.90
6879;DHT22;3478;51.462;7.338;2024-01-25T16:17:32;8.60;99.90
6879;DHT22;3478;51.462;7.338;2024-01-25T16:22:34;8.70;99.90
6879;DHT22;3478;51.462;7.338;2024-01-25T16:27:38;8.60;99.90
6879;DHT22;3478;51.462;7.338;2024-01-25T16:32:41;8.60;99.90
6879;DHT22;3478;51.462;7.338;2024-01-25T16:37:43;8.60;99.90
6879;DHT22;3478;51.462;7.338;2024-01-25T16:42:45;8.60;99.90
6879;DHT22;3478;51.462;7.338;2024-01-25T16:47:49;8.50;99.90
6879;DHT22;3478;51.462;7.338;2024-01-25T16:52:51;8.50;99.90
6879;DHT22;3478;51.462;7.338;2024-01-25T16:57:53;8.50;1.00
6879;DHT22;3478;51.462;7.338;2024-01-25T17:02:56;8.50;1.00
6879;DHT22;3478;51.462;7.338;2024-01-25T17:07:59;8.50;1.00
6879;DHT22;3478;51.462;7.338;2024-01-25T17:13:01;8.50;1.00
6879;DHT22;3478;51.462;7.338;2024-01-25T17:18:04;8.40;1.00
6879;DHT22;3478;51.462;7.338;2024-01-25T17:23:06;8.40;1.00
6879;DHT22;3478;51.462;7.338;2024-01-25T17:28:08;8.40;99.90
6879;DHT22;3478;51.462;7.338;2024-01-25T17:33:12;8.40;99.90
6879;DHT22;3478;51.462;7.338;2024-01-25T17:38:14;8.40;99.90
6879;DHT22;3478;51.462;7.338;2024-01-25T17:43:17;8.40;99.90
6879;DHT22;3478;51.462;7.338;2024-01-25T17:48:21;8.50;99.90
6879;DHT22;3478;51.462;7.338;2024-01-25T17:53:24;8.50;99.90
6879;DHT22;3478;51.462;7.338;2024-01-25T17:58:26;8.50;99.90
6879;DHT22;3478;51.462;7.338;2024-01-25T18:03:30;8.50;99.90
6879;DHT22;3478;51.462;7.338;2024-01-25T18:08:32;8.50;99.90
6879;DHT22;3478;51.462;7.338;2024-01-25T18:13:34;8.50;99.90
6879;DHT22;3478;51.462;7.338;2024-01-25T18:18:37;8.50;99.90
6879;DHT22;3478;51.462;7.338;2024-01-25T18:23:40;8.50;99.90
6879;DHT22;3478;51.462;7.338;2024-01-25T18:28:42;8.50;99.90
6879;DHT22;3478;51.462;7.338;2024-01-25T18:33:45;8.40;1.00
6879;DHT22;3478;51.462;7.338;2024-01-25T18:38:47;8.40;1.00
6879;DHT22;3478;51.462;7.338;2024-01-25T18:43:51;8.20;1.00
6879;DHT22;3478;51.462;7.338;2024-01-25T18:48:54;8.20;1.00
6879;DHT22;3478;51.462;7.338;2024-01-25T18:53:56;8.20;81.10
6879;DHT22;3478;51.462;7.338;2024-01-25T18:58:59;8.10;99.90
6879;DHT22;3478;51.462;7.338;2024-01-25T19:04:03;8.00;1.00
6879;DHT22;3478;51.462;7.338;2024-01-25T19:09:06;7.90;1.00
6879;DHT22;3478;51.462;7.338;2024-01-25T19:14:08;7.80;99.90
6879;DHT22;3478;51.462;7.338;2024-01-25T19:19:11;7.80;1.00
6879;DHT22;3478;51.462;7.338;2024-01-25T19:24:13;7.70;1.00
6879;DHT22;3478;51.462;7.338;2024-01-25T19:29:18;7.80;99.90
6879;DHT22;3478;51.462;7.338;2024-01-25T19:34:23;7.70;1.00
6879;DHT22;3478;51.462;7.338;2024-01-25T19:39:25;7.70;99.90
6879;DHT22;3478;51.462;7.338;2024-01-25T19:44:27;7.70;99.90
6879;DHT22;3478;51.462;7.338;2024-01-25T19:49:30;7.70;1.00
6879;DHT22;3478;51.462;7.338;2024-01-25T19:54:32;7.70;1.00
6879;DHT22;3478;51.462;7.338;2024-01-25T19:59:37;7.70;1.00
6879;DHT22;3478;51.462;7.338;2024-01-25T20:04:41;7.70;93.80
6879;DHT22;3478;51.462;7.338;2024-01-25T20:09:43;7.70;99.90
6879;DHT22;3478;51.462;7.338;2024-01-25T20:14:46;7.70;99.90
6879;DHT22;3478;51.462;7.338;2024-01-25T20:19:50;7.70;99.90
6879;DHT22;3478;51.462;7.338;2024-01-25T20:24:52;7.70;99.90
6879;DHT22;3478;51.462;7.338;2024-01-25T20:29:54;7.80;99.90
6879;DHT22;3478;51.462;7.338;2024-01-25T20:34:58;7.80;99.90
6879;DHT22;3478;51.462;7.338;2024-01-25T20:40:00;7.80;99.90
6879;DHT22;3478;51.462;7.338;2024-01-25T20:45:02;7.90;99.90
6879;DHT22;3478;51.462;7.338;2024-01-25T20:50:08;8.00;99.90
6879;DHT22;3478;51.462;7.338;2024-01-25T20:55:10;7.90;99.90
6879;DHT22;3478;51.462;7.338;2024-01-25T21:00:13;7.90;99.90
6879;DHT22;3478;51.462;7.338;2024-01-25T21:05:17;7.90;99.90
6879;DHT22;3478;51.462;7.338;2024-01-25T21:10:19;8.00;99.90
6879;DHT22;3478;51.462;7.338;2024-01-25T21:15:22;8.00;99.90
6879;DHT22;3478;51.462;7.338;2024-01-25T21:20:26;8.10;99.90
6879;DHT22;3478;51.462;7.338;2024-01-25T21:25:28;8.10;99.90
6879;DHT22;3478;51.462;7.338;2024-01-25T21:30:30;8.10;99.90
6879;DHT22;3478;51.462;7.338;2024-01-25T21:35:36;8.10;99.90
6879;DHT22;3478;51.462;7.338;2024-01-25T21:40:38;8.00;99.90
6879;DHT22;3478;51.462;7.338;2024-01-25T21:45:40;8.10;99.90
6879;DHT22;3478;51.462;7.338;2024-01-25T21:50:43;8.10;99.90
6879;DHT22;3478;51.462;7.338;2024-01-25T21:55:46;8.20;99.90
6879;DHT22;3478;51.462;7.338;2024-01-25T22:00:48;8.20;99.90
6879;DHT22;3478;51.462;7.338;2024-01-25T22:05:51;8.30;99.90
6879;DHT22;3478;51.462;7.338;2024-01-25T22:10:53;8.30;99.90
6879;DHT22;3478;51.462;7.338;2024-01-25T22:15:55;8.30;99.90
6879;DHT22;3478;51.462;7.338;2024-01-25T22:20:59;8.40;99.90
6879;DHT22;3478;51.462;7.338;2024-01-25T22:26:01;8.50;99.90
6879;DHT22;3478;51.462;7.338;2024-01-25T22:31:04;8.50;99.90
6879;DHT22;3478;51.462;7.338;2024-01-25T22:36:10;8.50;99.90
6879;DHT22;3478;51.462;7.338;2024-01-25T22:41:12;8.50;99.90
6879;DHT22;3478;51.462;7.338;2024-01-25T22:46:14;8.50;99.90
6879;DHT22;3478;51.462;7.338;2024-01-25T22:51:17;8.50;99.90
6879;DHT22;3478;51.462;7.338;2024-01-25T22:56:19;8.50;99.90
6879;DHT22;3478;51.462;7.338;2024-01-25T23:01:21;8.60;99.90
6879;DHT22;3478;51.462;7.338;2024-01-25T23:06:24;8.60;99.90
6879;DHT22;3478;51.462;7.338;2024-01-25T23:11:26;8.60;99.90
6879;DHT22;3478;51.462;7.338;2024-01-25T23:16:28;8.60;99.90
6879;DHT22;3478;51.462;7.338;2024-01-25T23:21:32;8.60;99.90
6879;DHT22;3478;51.462;7.338;2024-01-25T23:26:34;8.70;99.90
6879;DHT22;3478;51.462;7.338;2024-01-25T23:31:36;8.70;99.90
6879;DHT22;3478;51.462;7.338;2024-01-25T23:36:39;8.70;99.90
6879;DHT22;3478;51.462;7.338;2024-01-25T23:41:41;8.80;99.90
6879;DHT22;3478;51.462;7.338;2024-01-25T23:46:43;8.80;99.90
6879;DHT22;3478;51.462;7.338;2024-01-25T23:51:46;8.90;99.90
6879;DHT22;3478;51.462;7.338;2024-01-25T23:56:48;8.90;99.90
